Jones Creek, Texas
Current Conditions -  °F | °C
As of 11:15 AM on Friday 19 Dec 2014 (Local Time) from KARM Reporting Station
Heavy Rain Heavy Rain  
Wind Chill: 53°   Ceiling: 700
Heat Index: 53°   Visibility: 3mi
Dew Point: 52°   Wind: 17mph
Humidity: 97%   Direction: 360°N
Pressure: 30.06"   Gusts: 22mph
Location:  29.1916°N, 96.2212°W
Report Text: KARM 191715Z AUTO 36015G19KT 3SM +RA OVC007 12/11 A3006 RMK AO2 T01160111
Loading
Personal Weather Stations






























Interactive Weather Map New forecast layout! Learn more

10-Day Weather Forecast

Advertisements
Track Severe Weather on mobile